.
WxDataArchive / Data Records for 2007-05-10
2007-05-09 May 2007 2007-05-11

Data Records for Thursday, 10 May 2007

Time	Temp	Chill	HIndex	Humid	Dewpt	 Wind 	HiWind	WindDir	Rain 	Barom 
-----	----	-----	------	-----	-----	------	------	-------	-----	----- 
00:00	60.5	60.5	60.5	96	59.4	0	0	---	0.00	29.889 
00:05	60.5	60.5	60.5	96	59.4	0	0	---	0.00	29.888 
00:10	60.4	60.4	60.4	96	59.3	0	0	---	0.00	29.889 
00:15	60.4	60.4	60.4	96	59.3	0	0	---	0.00	29.892 
00:20	60.2	60.2	60.2	96	59.1	0	0	---	0.00	29.893 
00:25	60.1	60.1	60.1	96	59.0	0	0	---	0.00	29.891 
00:30	60.1	60.1	60.1	97	59.2	0	0	---	0.00	29.889 
00:35	60.1	60.1	60.1	97	59.2	0	0	---	0.00	29.889 
00:40	60.2	60.2	60.2	97	59.3	0	0	---	0.00	29.889 
00:45	60.1	60.1	60.1	97	59.2	0	0	---	0.00	29.889 
00:50	59.9	59.9	59.9	97	59.0	0	0	---	0.00	29.889 
00:55	59.8	59.8	59.8	97	58.9	0	0	---	0.00	29.888 
01:00	59.6	59.6	59.6	97	58.7	0	0	---	0.00	29.888 
01:05	59.6	59.6	59.6	97	58.7	0	0	---	0.00	29.888 
01:10	59.5	59.5	59.5	97	58.6	0	0	---	0.00	29.888 
01:15	59.3	59.3	59.3	97	58.4	0	0	---	0.00	29.888 
01:20	59.2	59.2	59.2	97	58.3	0	0	---	0.00	29.888 
01:25	59.0	59.0	59.0	97	58.1	0	0	---	0.00	29.888 
01:30	58.9	58.9	58.9	97	58.0	0	0	---	0.00	29.884 
01:35	58.9	58.9	58.9	97	58.0	0	0	---	0.00	29.884 
01:40	58.7	58.7	58.7	97	57.8	0	0	---	0.00	29.881 
01:45	58.7	58.7	58.7	97	57.8	0	0	---	0.00	29.882 
01:50	58.7	58.7	58.7	97	57.8	0	0	---	0.00	29.884 
01:55	58.6	58.6	58.6	97	57.7	0	0	---	0.00	29.881 
02:00	58.4	58.4	58.4	97	57.5	0	0	---	0.00	29.878 
02:05	58.3	58.3	58.3	97	57.5	0	0	---	0.00	29.877 
02:10	58.3	58.3	58.3	97	57.5	0	0	---	0.00	29.877 
02:15	58.3	58.3	58.3	97	57.5	0	0	---	0.00	29.875 
02:20	58.1	58.1	58.1	97	57.3	0	0	---	0.00	29.875 
02:25	58.1	58.1	58.1	97	57.3	0	0	---	0.00	29.876 
02:30	58.1	58.1	58.1	97	57.3	0	0	---	0.00	29.877 
02:35	58.1	58.1	58.1	97	57.3	0	0	---	0.00	29.880 
02:40	58.1	58.1	58.1	97	57.3	0	0	---	0.00	29.878 
02:45	58.0	58.0	58.0	97	57.2	0	0	---	0.00	29.878 
02:50	58.0	58.0	58.0	97	57.2	0	0	---	0.00	29.881 
02:55	58.3	58.3	58.3	98	57.7	0	1	270	0.00	29.885 
03:00	59.0	59.0	59.0	98	58.4	0	1	270	0.00	29.883 
03:05	59.6	59.6	59.6	98	59.0	0	0	---	0.00	29.883 
03:10	59.9	59.9	59.9	98	59.3	0	0	---	0.01	29.883 
03:15	60.1	60.1	60.1	98	59.5	0	1	270	0.00	29.879 
03:20	60.5	60.5	60.5	98	59.9	0	0	---	0.00	29.880 
03:25	60.9	60.9	60.9	99	60.6	0	1	270	0.00	29.880 
03:30	61.2	61.2	61.2	99	60.9	0	1	270	0.00	29.882 
03:35	61.2	61.2	61.2	99	60.9	0	1	270	0.00	29.881 
03:40	61.0	61.0	61.0	99	60.7	0	1	270	0.00	29.881 
03:45	61.0	61.0	61.0	99	60.7	0	0	---	0.00	29.881 
03:50	60.9	60.9	60.9	99	60.6	0	0	---	0.00	29.880 
03:55	60.9	60.9	60.9	99	60.6	0	1	270	0.00	29.878 
04:00	60.9	60.9	60.9	99	60.6	0	1	270	0.00	29.879 
04:05	60.9	60.9	60.9	99	60.6	0	0	---	0.00	29.880 
04:10	61.0	61.0	61.0	99	60.7	0	1	270	0.00	29.880 
04:15	61.2	61.2	61.2	99	60.9	0	1	270	0.00	29.882 
04:20	61.3	61.3	61.3	99	61.0	0	3	270	0.00	29.880 
04:25	61.3	61.3	61.3	99	61.0	0	1	270	0.00	29.881 
04:30	61.3	61.3	61.3	99	61.0	1	2	270	0.00	29.879 
04:35	61.3	61.3	61.3	99	61.0	0	2	270	0.00	29.877 
04:40	61.3	61.3	61.3	99	61.0	0	2	270	0.00	29.876 
04:45	61.5	61.5	61.5	99	61.2	0	2	270	0.00	29.874 
04:50	61.3	61.3	61.3	99	61.0	0	1	270	0.00	29.873 
04:55	61.3	61.3	61.3	99	61.0	0	0	---	0.00	29.872 
05:00	61.3	61.3	61.3	99	61.0	0	0	---	0.00	29.873 
05:05	61.3	61.3	61.3	99	61.0	0	1	270	0.00	29.872 
05:10	61.3	61.3	61.3	99	61.0	0	1	270	0.00	29.873 
05:15	61.2	61.2	61.2	99	60.9	0	1	270	0.00	29.874 
05:20	61.2	61.2	61.2	99	60.9	0	1	270	0.00	29.875 
05:25	60.9	60.9	60.9	99	60.6	0	0	---	0.00	29.873 
05:30	60.9	60.9	60.9	99	60.6	0	0	---	0.00	29.874 
05:35	60.7	60.7	60.7	99	60.4	0	1	270	0.00	29.877 
05:40	60.5	60.5	60.5	99	60.2	0	0	---	0.00	29.878 
05:45	60.5	60.5	60.5	99	60.2	0	0	---	0.00	29.877 
05:50	60.5	60.5	60.5	99	60.2	0	0	---	0.00	29.878 
05:55	60.5	60.5	60.5	99	60.2	0	1	270	0.00	29.881 
06:00	60.4	60.4	60.4	99	60.1	0	1	270	0.00	29.882 
06:05	60.4	60.4	60.4	99	60.1	0	1	270	0.00	29.887 
06:10	60.5	60.5	60.5	99	60.2	0	1	270	0.00	29.888 
06:15	60.5	60.5	60.5	99	60.2	0	0	---	0.00	29.888 
06:20	60.7	60.7	60.7	99	60.4	0	0	---	0.00	29.889 
06:25	60.7	60.7	60.7	99	60.4	0	0	---	0.00	29.890 
06:30	60.9	60.9	60.9	99	60.6	0	0	---	0.00	29.893 
06:35	60.9	60.9	60.9	99	60.6	0	0	---	0.00	29.892 
06:40	61.0	61.0	61.0	99	60.7	0	0	---	0.00	29.891 
06:45	61.2	61.2	61.2	99	60.9	0	0	---	0.00	29.890 
06:50	61.3	61.3	61.3	99	61.0	0	0	---	0.00	29.891 
06:55	61.3	61.3	61.3	99	61.0	0	0	---	0.00	29.896 
07:00	61.6	61.6	61.6	99	61.3	0	0	---	0.00	29.897 
07:05	61.8	61.8	61.8	99	61.5	0	0	---	0.00	29.902 
07:10	62.0	62.0	62.0	99	61.7	0	0	---	0.00	29.904 
07:15	62.1	62.1	62.1	99	61.8	0	0	---	0.00	29.904 
07:20	62.3	62.3	62.3	99	62.0	0	1	270	0.00	29.903 
07:25	62.3	62.3	62.3	99	62.0	0	1	270	0.00	29.904 
07:30	62.4	62.4	62.4	99	62.1	0	1	270	0.00	29.905 
07:35	62.4	62.4	62.4	99	62.1	0	1	270	0.00	29.906 
07:40	62.6	62.6	62.6	99	62.3	0	1	270	0.00	29.905 
07:45	62.7	62.7	62.7	99	62.4	0	2	270	0.00	29.904 
07:50	62.6	62.6	62.6	99	62.3	1	2	270	0.00	29.905 
07:55	62.6	62.6	62.6	99	62.3	0	2	270	0.00	29.904 
08:00	62.4	62.4	62.4	99	62.1	0	2	270	0.00	29.905 
08:05	62.4	62.4	62.4	99	62.1	0	2	270	0.00	29.908 
08:10	62.4	62.4	62.4	99	62.1	1	3	270	0.00	29.908 
08:15	62.6	62.6	62.6	99	62.3	1	2	270	0.00	29.908 
08:20	62.4	62.4	62.4	99	62.1	1	3	270	0.00	29.909 
08:25	62.4	62.4	62.4	99	62.1	1	3	270	0.00	29.910 
08:30	62.6	62.6	62.6	99	62.3	1	3	270	0.00	29.910 
08:35	62.7	62.7	62.7	99	62.4	1	3	270	0.00	29.912 
08:40	62.9	62.9	62.9	99	62.6	1	3	270	0.00	29.912 
08:45	63.1	63.1	63.1	99	62.8	1	2	270	0.00	29.910 
08:50	63.1	63.1	63.1	99	62.8	1	3	270	0.00	29.910 
08:55	63.4	63.4	63.4	99	63.1	1	4	270	0.00	29.910 
09:00	63.4	63.4	63.4	99	63.1	1	5	68	0.00	29.909 
09:05	63.7	63.7	63.7	99	63.4	1	3	90	0.00	29.911 
09:10	63.7	63.7	63.7	99	63.4	1	3	90	0.00	29.911 
09:15	64.0	64.0	64.0	99	63.7	0	3	90	0.00	29.912 
09:20	64.3	64.3	64.3	99	64.0	1	2	90	0.00	29.916 
09:25	64.3	64.3	64.3	99	64.0	1	2	90	0.00	29.917 
09:30	64.5	64.5	64.5	99	64.2	0	2	90	0.00	29.917 
09:35	65.0	65.0	65.0	99	64.7	1	2	90	0.00	29.914 
09:40	64.7	64.7	64.7	99	64.4	1	3	90	0.00	29.916 
09:45	65.3	65.3	65.3	99	65.0	1	3	90	0.00	29.916 
09:50	65.5	65.5	65.5	99	65.2	1	2	90	0.00	29.917 
09:55	66.0	66.0	66.0	99	65.7	1	3	90	0.00	29.917 
10:00	66.1	66.1	66.1	99	65.8	1	3	90	0.00	29.917 
10:05	66.6	66.6	66.6	99	66.3	1	3	90	0.00	29.919 
10:10	67.1	67.1	67.1	98	66.5	1	3	112	0.00	29.917 
10:15	67.4	67.4	67.4	97	66.5	1	3	90	0.00	29.918 
10:20	67.4	67.4	67.4	95	65.9	1	3	112	0.00	29.918 
10:25	67.9	67.9	67.9	92	65.5	1	3	112	0.00	29.918 
10:30	68.6	68.6	68.6	91	65.9	2	5	90	0.00	29.918 
10:35	69.4	69.4	69.4	88	65.7	2	5	90	0.00	29.917 
10:40	69.9	69.9	69.9	86	65.5	2	4	68	0.00	29.916 
10:45	70.1	70.1	70.1	85	65.4	2	4	90	0.00	29.918 
10:50	70.8	70.8	70.8	87	66.7	1	3	90	0.00	29.915 
10:55	71.6	71.6	71.6	85	66.8	2	6	90	0.00	29.916 
11:00	71.8	71.8	71.8	82	66.0	2	6	112	0.00	29.915 
11:05	72.1	72.1	72.1	81	65.9	1	4	90	0.00	29.916 
11:10	72.5	72.5	72.5	81	66.3	2	6	112	0.00	29.913 
11:15	72.7	72.7	72.7	80	66.2	2	5	90	0.00	29.911 
11:20	72.8	72.8	72.8	81	66.6	2	4	90	0.00	29.910 
11:25	73.2	73.2	73.2	78	65.9	2	6	112	0.00	29.910 
11:30	73.3	73.3	73.3	78	66.0	1	2	112	0.00	29.908 
11:35	73.5	73.5	73.5	78	66.2	2	4	112	0.00	29.908 
11:40	73.7	73.7	73.7	78	66.4	1	3	112	0.00	29.907 
11:45	74.0	74.0	74.0	77	66.3	1	4	112	0.00	29.907 
11:50	74.2	74.2	74.2	77	66.5	1	3	112	0.00	29.905 
11:55	74.6	74.6	74.6	75	66.1	2	5	112	0.00	29.904 
12:00	74.9	74.9	74.9	73	65.6	1	4	90	0.00	29.900 
12:05	74.9	74.9	74.9	74	66.0	2	4	90	0.00	29.901 
12:10	74.9	74.9	74.9	73	65.6	2	4	90	0.00	29.901 
12:15	75.3	75.3	76.5	75	66.8	2	4	90	0.00	29.898 
12:20	75.8	75.8	77.3	72	66.1	1	5	90	0.00	29.894 
12:25	76.0	76.0	77.7	70	65.5	1	4	90	0.00	29.893 
12:30	76.1	76.1	77.8	68	64.8	1	5	90	0.00	29.890 
12:35	76.3	76.3	78.1	65	63.6	1	4	248	0.00	29.888 
12:40	76.5	76.5	78.4	62	62.5	1	3	270	0.00	29.887 
12:45	77.0	77.0	78.8	64	63.9	1	3	68	0.00	29.886 
12:50	77.2	77.2	79.0	61	62.7	1	2	68	0.00	29.885 
12:55	77.6	77.6	79.2	58	61.6	1	3	68	0.00	29.883 
13:00	77.7	77.7	79.3	56	60.7	1	2	90	0.00	29.883 
13:05	78.3	78.3	79.6	53	59.7	1	3	90	0.00	29.883 
13:10	78.6	78.6	80.1	57	62.1	1	2	90	0.00	29.880 
13:15	79.2	79.2	80.7	57	62.6	1	4	90	0.00	29.881 
13:20	79.6	79.6	80.5	50	59.3	1	3	248	0.00	29.879 
13:25	79.8	79.8	81.1	55	62.2	1	3	135	0.00	29.879 
13:30	79.9	79.9	81.0	53	61.2	1	3	270	0.00	29.878 
13:35	79.9	79.9	80.7	50	59.6	2	5	90	0.00	29.876 
13:40	79.8	79.8	80.5	49	58.9	1	3	90	0.00	29.873 
13:45	80.3	80.3	81.1	50	59.9	2	4	90	0.00	29.873 
13:50	80.1	80.1	80.8	49	59.2	1	4	248	0.00	29.874 
13:55	80.7	80.7	81.3	49	59.7	1	3	248	0.00	29.873 
14:00	80.3	80.3	81.0	49	59.4	1	3	315	0.00	29.872 
14:05	80.3	80.3	80.6	45	57.0	2	5	248	0.00	29.870 
14:10	80.5	80.5	80.6	43	55.9	1	3	315	0.00	29.868 
14:15	80.7	80.7	80.8	44	56.7	2	3	292	0.00	29.867 
14:20	81.2	81.2	81.2	44	57.2	1	3	225	0.00	29.866 
14:25	81.1	81.1	81.3	45	57.7	1	3	338	0.00	29.867 
14:30	80.7	80.7	80.6	42	55.4	1	4	270	0.00	29.868 
14:35	80.3	80.3	80.3	42	55.1	1	3	248	0.00	29.869 
14:40	80.1	80.1	80.2	42	54.9	1	3	338	0.00	29.866 
14:45	80.5	80.5	80.6	43	55.9	1	5	248	0.00	29.863 
14:50	80.1	80.1	80.2	42	54.9	1	4	270	0.00	29.863 
14:55	79.6	79.6	79.7	41	53.8	0	2	270	0.00	29.858 
15:00	79.6	79.6	79.7	41	53.8	0	1	315	0.00	29.857 
15:05	79.6	79.6	79.8	42	54.5	1	2	315	0.00	29.856 
15:10	79.4	79.4	79.6	41	53.6	0	2	270	0.00	29.855 
15:15	79.4	79.4	79.8	44	55.6	0	4	248	0.00	29.853 
15:20	79.6	79.6	80.0	44	55.7	0	3	248	0.00	29.852 
15:25	79.6	79.6	79.9	43	55.1	1	3	315	0.00	29.853 
15:30	79.8	79.8	79.9	41	54.0	0	2	315	0.00	29.851 
15:35	80.3	80.3	80.1	40	53.8	1	4	270	0.00	29.851 
15:40	80.7	80.7	80.3	39	53.4	1	3	270	0.00	29.848 
15:45	80.7	80.7	80.5	41	54.8	1	2	315	0.00	29.844 
15:50	80.7	80.7	80.3	39	53.4	0	2	315	0.00	29.842 
15:55	80.3	80.3	80.1	40	53.8	1	3	248	0.00	29.842 
16:00	79.8	79.8	79.7	39	52.6	0	2	315	0.00	29.840 
16:05	79.4	79.4	79.6	41	53.6	0	3	315	0.00	29.838 
16:10	79.2	79.2	79.6	43	54.7	0	2	315	0.00	29.837 
16:15	79.2	79.2	79.5	42	54.1	0	1	315	0.00	29.837 
16:20	79.6	79.6	80.0	44	55.7	0	1	315	0.00	29.837 
16:25	79.8	79.8	80.0	42	54.6	0	1	315	0.00	29.836 
16:30	79.8	79.8	80.0	42	54.6	0	1	315	0.00	29.836 
16:35	79.6	79.6	79.8	42	54.5	0	1	315	0.00	29.836 
16:40	79.4	79.4	79.8	43	54.9	0	1	315	0.00	29.835 
16:45	79.4	79.4	79.7	42	54.3	0	1	315	0.00	29.835 
16:50	79.6	79.6	79.9	43	55.1	0	1	315	0.00	29.835 
16:55	79.6	79.6	79.7	40	53.1	0	1	315	0.00	29.834 
17:00	79.6	79.6	79.7	40	53.1	0	2	315	0.00	29.833 
17:05	79.6	79.6	79.8	42	54.5	0	1	315	0.00	29.833 
17:10	79.6	79.6	79.8	42	54.5	0	2	315	0.00	29.831 
17:15	79.4	79.4	79.6	41	53.6	0	1	315	0.00	29.830 
17:20	79.2	79.2	79.5	41	53.4	0	0	---	0.00	29.829 
17:25	79.2	79.2	79.4	40	52.8	0	1	315	0.00	29.827 
17:30	79.4	79.4	79.8	43	54.9	0	0	---	0.00	29.825 
17:35	79.4	79.4	79.8	43	54.9	0	0	---	0.00	29.822 
17:40	79.4	79.4	79.8	43	54.9	0	0	---	0.00	29.823 
17:45	79.0	79.0	79.5	43	54.6	0	2	315	0.00	29.823 
17:50	78.8	78.8	79.4	44	55.0	0	1	315	0.00	29.822 
17:55	78.6	78.6	79.2	43	54.2	0	0	---	0.00	29.822 
18:00	78.5	78.5	79.2	43	54.1	0	0	---	0.00	29.821 
18:05	78.3	78.3	79.1	44	54.6	0	0	---	0.00	29.819 
18:10	78.3	78.3	79.1	44	54.6	0	0	---	0.00	29.819 
18:15	78.1	78.1	79.0	44	54.4	0	0	---	0.00	29.817 
18:20	78.1	78.1	79.0	44	54.4	0	0	---	0.00	29.818 
18:25	77.9	77.9	78.9	44	54.2	0	0	---	0.00	29.819 
18:30	77.9	77.9	79.0	46	55.4	0	0	---	0.00	29.818 
18:35	77.9	77.9	78.9	45	54.8	0	0	---	0.00	29.817 
18:40	77.9	77.9	78.9	45	54.8	0	0	---	0.00	29.816 
18:45	77.9	77.9	79.0	47	56.0	0	0	---	0.00	29.815 
18:50	77.7	77.7	78.9	47	55.8	0	0	---	0.00	29.815 
18:55	77.6	77.6	78.9	48	56.3	0	0	---	0.00	29.816 
19:00	77.2	77.2	78.6	46	54.8	0	0	---	0.00	29.820 
19:05	76.8	76.8	78.4	47	55.0	0	0	---	0.00	29.822 
19:10	76.7	76.7	78.3	46	54.3	0	0	---	0.00	29.822 
19:15	76.3	76.3	78.2	49	55.7	0	0	---	0.00	29.823 
19:20	76.0	76.0	78.0	47	54.3	1	2	315	0.00	29.824 
19:25	75.8	75.8	77.9	46	53.5	1	2	315	0.00	29.828 
19:30	75.4	75.4	77.8	47	53.7	0	2	315	0.00	29.832 
19:35	75.1	75.1	77.7	47	53.5	0	2	270	0.00	29.835 
19:40	74.6	74.6	74.6	48	53.6	0	1	270	0.00	29.838 
19:45	74.2	74.2	74.2	49	53.8	0	1	270	0.00	29.839 
19:50	73.9	73.9	73.9	49	53.5	0	1	270	0.00	29.841 
19:55	73.7	73.7	73.7	49	53.3	0	1	270	0.00	29.842 
20:00	73.2	73.2	73.2	50	53.4	0	0	---	0.00	29.845 
20:05	72.8	72.8	72.8	51	53.6	0	0	---	0.00	29.844 
20:10	72.5	72.5	72.5	51	53.3	0	0	---	0.00	29.847 
20:15	72.1	72.1	72.1	52	53.5	0	0	---	0.00	29.849 
20:20	71.8	71.8	71.8	52	53.2	0	0	---	0.00	29.851 
20:25	71.5	71.5	71.5	52	52.9	0	0	---	0.00	29.853 
20:30	71.3	71.3	71.3	52	52.8	0	1	270	0.00	29.855 
20:35	71.3	71.3	71.3	52	52.8	0	0	---	0.00	29.857 
20:40	71.3	71.3	71.3	52	52.8	0	0	---	0.00	29.857 
20:45	71.1	71.1	71.1	52	52.6	0	0	---	0.00	29.857 
20:50	70.8	70.8	70.8	52	52.3	0	0	---	0.00	29.859 
20:55	70.6	70.6	70.6	52	52.1	0	1	270	0.00	29.858 
21:00	70.4	70.4	70.4	52	51.9	0	1	270	0.00	29.859 
21:05	70.1	70.1	70.1	53	52.2	0	0	---	0.00	29.856 
21:10	69.8	69.8	69.8	54	52.4	0	0	---	0.00	29.856 
21:15	69.4	69.4	69.4	54	52.0	0	0	---	0.00	29.857 
21:20	68.9	68.9	68.9	56	52.5	0	0	---	0.00	29.861 
21:25	68.4	68.4	68.4	58	53.0	0	0	---	0.00	29.864 
21:30	67.8	67.8	67.8	59	52.9	0	0	---	0.00	29.867 
21:35	67.3	67.3	67.3	60	52.9	0	0	---	0.00	29.868 
21:40	66.8	66.8	66.8	62	53.4	0	0	---	0.00	29.870 
21:45	66.1	66.1	66.1	63	53.1	0	0	---	0.00	29.870 
21:50	65.6	65.6	65.6	64	53.1	0	0	---	0.00	29.871 
21:55	65.3	65.3	65.3	65	53.2	0	0	---	0.00	29.873 
22:00	64.8	64.8	64.8	66	53.2	0	0	---	0.00	29.872 
22:05	64.3	64.3	64.3	67	53.1	0	0	---	0.00	29.872 
22:10	64.0	64.0	64.0	68	53.2	0	0	---	0.00	29.872 
22:15	63.7	63.7	63.7	69	53.3	0	0	---	0.00	29.864 
22:20	63.2	63.2	63.2	70	53.2	0	0	---	0.00	29.864 
22:25	63.1	63.1	63.1	71	53.5	0	0	---	0.00	29.865 
22:30	62.7	62.7	62.7	73	53.9	0	0	---	0.00	29.865 
22:35	62.6	62.6	62.6	73	53.8	0	0	---	0.00	29.863 
22:40	62.4	62.4	62.4	73	53.6	0	0	---	0.00	29.862 
22:45	62.1	62.1	62.1	74	53.7	0	0	---	0.00	29.861 
22:50	62.0	62.0	62.0	75	54.0	0	0	---	0.00	29.861 
22:55	61.8	61.8	61.8	75	53.8	0	0	---	0.00	29.860 
23:00	61.5	61.5	61.5	76	53.9	0	0	---	0.00	29.859 
23:05	61.3	61.3	61.3	77	54.0	0	0	---	0.00	29.859 
23:10	61.2	61.2	61.2	77	53.9	0	0	---	0.00	29.858 
23:15	60.9	60.9	60.9	77	53.6	0	0	---	0.00	29.859 
23:20	60.7	60.7	60.7	78	53.8	0	0	---	0.00	29.858 
23:25	60.5	60.5	60.5	78	53.6	0	0	---	0.00	29.857 
23:30	60.2	60.2	60.2	78	53.3	0	0	---	0.00	29.859 
23:35	60.1	60.1	60.1	79	53.6	0	0	---	0.00	29.861 
23:40	59.9	59.9	59.9	79	53.4	0	0	---	0.00	29.863 
23:45	59.6	59.6	59.6	80	53.4	0	0	---	0.00	29.864 
23:50	59.5	59.5	59.5	81	53.7	0	0	---	0.00	29.864 
23:55	59.3	59.3	59.3	81	53.5	0	0	---	0.00	29.864 

CoCoRaHS
IN-AL-39
A2 Web Hosting
Creative Commons License
GoDaddy
Look for:

loaded 2017-12-13 10:11:27 • last modified 2010-11-18 10:43:29
Privacy PolicyDisclaimer
• wx.awcolley.com is powered by PmWiki v.2002016 •
• all content (unless otherwise noted) © 2017 A W Colley